Time;durP1;ratioP1;P1;durP2;ratioP2;P2;SDS_P1;SDS_P2;PMS_P1;PMS_P2;Temp;Humidity;BMP_temperature;BMP_pressure;BME280_temperature;BME280_humidity;BME280_pressure;Samples;Min_cycle;Max_cycle;Signal;HPM_P1;HPM_P2
2022/10/27 00:00:56;;;;;;;5.93;4.60;;;11.20;99.90;;;;;;4864315;29;20402;-87
2022/10/27 00:03:22;;;;;;;7.07;4.07;;;11.10;99.90;;;;;;4862944;29;20245;-87
2022/10/27 00:05:48;;;;;;;6.97;4.97;;;11.10;99.90;;;;;;4863025;29;20195;-87
2022/10/27 00:08:16;;;;;;;8.60;4.73;;;11.10;99.90;;;;;;4858914;29;20218;-87
2022/10/27 00:10:43;;;;;;;8.23;4.60;;;11.00;99.90;;;;;;4859774;29;20281;-87
2022/10/27 00:13:11;;;;;;;7.63;5.13;;;11.00;99.90;;;;;;4859676;29;20202;-87
2022/10/27 00:15:37;;;;;;;10.70;5.07;;;11.00;99.90;;;;;;4859720;29;20285;-87
2022/10/27 00:18:08;;;;;;;6.60;4.87;;;11.00;99.90;;;;;;4859712;29;20274;-86
2022/10/27 00:20:34;;;;;;;7.07;5.10;;;10.90;99.90;;;;;;4859571;29;20192;-87
2022/10/27 00:23:00;;;;;;;7.57;4.90;;;10.90;99.90;;;;;;4859631;29;20204;-87
2022/10/27 00:25:25;;;;;;;9.57;5.13;;;11.00;99.90;;;;;;4859552;29;20189;-87
2022/10/27 00:27:51;;;;;;;8.23;5.33;;;10.90;99.90;;;;;;4865604;29;20207;-87
2022/10/27 00:30:17;;;;;;;10.00;5.37;;;10.90;99.90;;;;;;4862318;29;20251;-87
2022/10/27 00:32:43;;;;;;;9.87;5.17;;;10.80;99.90;;;;;;4862708;29;20241;-87
2022/10/27 00:35:09;;;;;;;21.77;4.80;;;10.60;99.90;;;;;;4877957;29;20205;-87
2022/10/27 00:37:34;;;;;;;17.80;5.27;;;10.30;99.90;;;;;;4862496;29;20192;-87
2022/10/27 00:40:00;;;;;;;6.77;4.33;;;10.20;99.90;;;;;;4862338;29;20280;-87
2022/10/27 00:42:26;;;;;;;27.60;5.37;;;10.10;99.90;;;;;;4861384;29;20221;-87
2022/10/27 00:44:52;;;;;;;19.97;5.53;;;10.20;99.90;;;;;;4864222;29;20188;-87
2022/10/27 00:47:25;;;;;;;38.53;6.37;;;10.10;99.90;;;;;;4861188;29;20307;-87
2022/10/27 00:50:11;;;;;;;16.60;4.50;;;10.10;99.90;;;;;;4864278;29;20177;-87
2022/10/27 00:52:52;;;;;;;8.40;5.03;;;10.10;99.90;;;;;;4862261;29;20228;-87
2022/10/27 00:55:32;;;;;;;10.27;4.10;;;10.10;99.90;;;;;;4862335;29;20180;-87
2022/10/27 00:58:10;;;;;;;5.97;4.03;;;10.20;99.90;;;;;;4862398;29;20191;-87
2022/10/27 01:00:38;;;;;;;7.30;5.20;;;10.20;99.90;;;;;;4849341;29;20226;-86
2022/10/27 01:03:06;;;;;;;6.77;4.47;;;10.20;99.90;;;;;;4840909;29;20267;-87
2022/10/27 01:05:34;;;;;;;7.90;4.43;;;10.20;99.90;;;;;;4825469;29;20189;-87
2022/10/27 01:08:03;;;;;;;6.10;4.57;;;10.20;99.90;;;;;;4827075;29;20238;-87
2022/10/27 01:10:29;;;;;;;7.27;4.90;;;10.10;99.90;;;;;;4859047;29;20257;-86
2022/10/27 01:12:55;;;;;;;9.97;4.53;;;10.20;99.90;;;;;;4858984;29;20229;-87
2022/10/27 01:15:48;;;;;;;6.57;4.40;;;10.20;99.90;;;;;;4859238;29;20189;-87
2022/10/27 01:18:37;;;;;;;4.70;3.97;;;10.20;99.90;;;;;;4858070;29;20285;-87
2022/10/27 01:21:21;;;;;;;4.07;3.67;;;10.20;99.90;;;;;;4859407;29;20179;-87
2022/10/27 01:24:10;;;;;;;3.73;3.40;;;10.20;99.90;;;;;;4866064;29;20320;-86
2022/10/27 01:26:40;;;;;;;4.30;3.90;;;10.10;99.90;;;;;;4861789;29;20210;-86
2022/10/27 01:29:27;;;;;;;5.90;3.70;;;10.10;99.90;;;;;;4847070;29;20183;-87
2022/10/27 01:32:14;;;;;;;5.53;4.33;;;10.10;99.90;;;;;;4859153;29;20245;-87
2022/10/27 01:35:05;;;;;;;7.73;4.20;;;10.10;99.90;;;;;;4858950;29;20191;-87
2022/10/27 01:37:43;;;;;;;11.57;5.07;;;10.20;99.90;;;;;;4858661;29;20174;-87
2022/10/27 01:40:27;;;;;;;11.03;4.47;;;10.20;99.90;;;;;;4858517;29;20260;-87
2022/10/27 01:42:59;;;;;;;12.33;4.80;;;10.10;99.90;;;;;;4860124;29;20208;-87
2022/10/27 01:45:30;;;;;;;10.10;4.03;;;10.20;99.90;;;;;;4862327;29;20387;-87
2022/10/27 01:47:57;;;;;;;4.90;3.97;;;10.10;99.90;;;;;;4862170;29;20216;-87
2022/10/27 01:50:38;;;;;;;4.83;4.07;;;10.10;99.90;;;;;;4862199;29;20241;-87
2022/10/27 01:53:05;;;;;;;4.30;3.90;;;10.00;99.90;;;;;;4862176;29;20205;-87
2022/10/27 01:56:16;;;;;;;4.40;3.70;;;10.00;99.90;;;;;;4862214;29;20181;-87
2022/10/27 01:59:00;;;;;;;10.07;4.20;;;10.00;99.90;;;;;;4845505;29;20196;-86
2022/10/27 02:02:25;;;;;;;5.70;4.40;;;10.00;99.90;;;;;;4862367;29;20185;-87
2022/10/27 02:05:06;;;;;;;6.13;4.10;;;10.00;99.90;;;;;;4851281;29;20188;-87
2022/10/27 02:07:35;;;;;;;5.30;4.03;;;10.00;99.90;;;;;;4877525;29;20213;-87
2022/10/27 02:10:03;;;;;;;5.10;3.60;;;10.00;99.90;;;;;;4862000;29;20193;-87
2022/10/27 02:12:32;;;;;;;17.23;4.43;;;10.00;99.90;;;;;;4862489;29;20197;-87
2022/10/27 02:15:01;;;;;;;24.77;4.43;;;10.00;99.90;;;;;;4863426;29;20189;-87
2022/10/27 02:17:36;;;;;;;23.33;4.20;;;9.90;99.90;;;;;;4861742;29;20188;-87
2022/10/27 02:20:07;;;;;;;19.80;4.77;;;9.70;99.90;;;;;;4862148;29;20177;-87
2022/10/27 02:22:35;;;;;;;19.30;4.30;;;9.60;99.90;;;;;;4861814;29;20212;-87
2022/10/27 02:25:01;;;;;;;24.03;5.00;;;9.50;99.90;;;;;;4861613;29;20194;-87
2022/10/27 02:27:38;;;;;;;9.77;4.30;;;9.50;99.90;;;;;;4860341;29;20614;-86
2022/10/27 02:30:05;;;;;;;14.60;4.73;;;9.50;99.90;;;;;;4868585;29;20230;-86
2022/10/27 02:32:33;;;;;;;6.30;4.70;;;9.40;99.90;;;;;;4854587;29;20204;-87
2022/10/27 02:34:59;;;;;;;9.53;3.93;;;9.40;99.90;;;;;;4864518;29;20184;-86
2022/10/27 02:37:36;;;;;;;15.90;4.67;;;9.40;99.90;;;;;;4864401;29;20192;-87
2022/10/27 02:40:02;;;;;;;11.70;4.80;;;9.40;99.90;;;;;;4864487;29;20259;-87
2022/10/27 02:42:28;;;;;;;12.83;4.37;;;9.40;99.90;;;;;;4864668;29;20212;-87
2022/10/27 02:44:54;;;;;;;4.90;4.50;;;9.40;99.90;;;;;;4864276;29;20260;-87
2022/10/27 02:47:20;;;;;;;5.27;4.47;;;9.40;99.90;;;;;;4864189;29;20211;-86
2022/10/27 02:49:45;;;;;;;4.47;4.07;;;9.40;99.90;;;;;;4856199;29;20189;-86
2022/10/27 02:52:12;;;;;;;3.90;3.60;;;9.50;99.90;;;;;;4860792;29;20218;-86
2022/10/27 02:54:39;;;;;;;4.40;4.00;;;9.50;99.90;;;;;;4861359;29;20189;-87
2022/10/27 02:57:05;;;;;;;4.10;3.63;;;9.50;99.90;;;;;;4861143;29;20244;-86
2022/10/27 02:59:31;;;;;;;4.30;3.57;;;9.50;99.90;;;;;;4846189;29;20188;-87
2022/10/27 03:01:57;;;;;;;7.00;4.13;;;9.40;99.90;;;;;;4862211;29;20188;-86
2022/10/27 03:04:23;;;;;;;5.53;3.97;;;9.40;99.90;;;;;;4845807;29;20208;-87
2022/10/27 03:06:49;;;;;;;6.00;4.50;;;9.40;99.90;;;;;;4845782;29;20200;-86
2022/10/27 03:09:14;;;;;;;8.00;4.93;;;9.40;99.90;;;;;;4845424;29;20200;-87
2022/10/27 03:11:40;;;;;;;7.47;4.70;;;9.40;99.90;;;;;;4845885;29;20180;-86
2022/10/27 03:14:06;;;;;;;5.33;4.73;;;9.40;99.90;;;;;;4861014;29;20209;-87
2022/10/27 03:16:32;;;;;;;5.83;5.17;;;9.40;99.90;;;;;;4860749;29;20267;-87
2022/10/27 03:18:58;;;;;;;9.47;5.00;;;9.50;99.90;;;;;;4845174;29;20189;-87
2022/10/27 03:21:24;;;;;;;8.17;4.97;;;9.50;99.90;;;;;;4845789;29;20189;-87
2022/10/27 03:23:50;;;;;;;8.80;5.43;;;9.50;99.90;;;;;;4860364;29;20712;-87
2022/10/27 03:26:15;;;;;;;9.10;5.73;;;9.60;99.90;;;;;;4860825;29;20184;-87
2022/10/27 03:28:41;;;;;;;10.67;5.60;;;9.60;99.90;;;;;;4861726;29;20193;-86
2022/10/27 03:31:07;;;;;;;14.47;6.07;;;9.60;99.90;;;;;;4852142;29;20180;-86
2022/10/27 03:33:57;;;;;;;10.60;6.00;;;9.60;99.90;;;;;;4855764;29;20241;-87
2022/10/27 03:36:22;;;;;;;15.93;6.30;;;9.70;99.90;;;;;;4875608;29;20300;-86
2022/10/27 03:38:48;;;;;;;10.30;5.20;;;9.70;99.90;;;;;;4860228;29;20280;-86
2022/10/27 03:41:14;;;;;;;15.57;5.30;;;9.70;99.90;;;;;;4860379;29;20181;-86
2022/10/27 03:43:40;;;;;;;12.97;5.27;;;9.70;99.90;;;;;;4860154;29;20658;-87
2022/10/27 03:46:07;;;;;;;8.77;4.80;;;9.70;99.90;;;;;;4860239;29;20220;-87
2022/10/27 03:48:33;;;;;;;6.67;4.90;;;9.80;99.90;;;;;;4861639;29;20220;-87
2022/10/27 03:50:59;;;;;;;11.80;6.00;;;9.80;99.90;;;;;;4863235;29;20184;-87
2022/10/27 03:53:24;;;;;;;8.27;5.67;;;9.70;99.90;;;;;;4863118;29;20223;-87
2022/10/27 03:55:50;;;;;;;9.37;5.30;;;9.70;99.90;;;;;;4863407;29;20250;-86
2022/10/27 03:58:17;;;;;;;7.83;4.73;;;9.80;99.90;;;;;;4861164;29;20184;-86
2022/10/27 04:00:53;;;;;;;8.63;4.87;;;9.70;99.90;;;;;;4860470;29;20216;-86
2022/10/27 04:03:19;;;;;;;11.13;5.60;;;9.70;99.90;;;;;;4860083;29;20204;-87
2022/10/27 04:05:49;;;;;;;6.00;5.10;;;9.70;99.90;;;;;;4859557;29;20222;-86
2022/10/27 04:08:25;;;;;;;9.90;6.43;;;9.70;99.90;;;;;;4863260;29;20196;-87
2022/10/27 04:10:51;;;;;;;6.70;4.63;;;9.70;99.90;;;;;;4862936;29;20174;-87
2022/10/27 04:13:17;;;;;;;7.27;4.83;;;9.60;99.90;;;;;;4862847;29;20196;-87
2022/10/27 04:15:43;;;;;;;8.60;4.43;;;9.60;99.90;;;;;;4845406;29;20268;-86
2022/10/27 04:18:12;;;;;;;7.43;4.60;;;9.50;99.90;;;;;;4859496;29;20653;-87
2022/10/27 04:20:38;;;;;;;7.63;5.33;;;9.60;99.90;;;;;;4859738;29;20185;-87
2022/10/27 04:23:04;;;;;;;11.67;5.20;;;9.60;99.90;;;;;;4859872;29;20208;-86
2022/10/27 04:25:29;;;;;;;6.87;4.70;;;9.60;99.90;;;;;;4859665;29;20206;-87
2022/10/27 04:28:03;;;;;;;6.80;4.60;;;9.60;99.90;;;;;;4859526;29;20216;-86
2022/10/27 04:30:29;;;;;;;10.50;4.80;;;9.60;99.90;;;;;;4859312;29;20242;-87
2022/10/27 04:32:55;;;;;;;6.27;4.50;;;9.50;99.90;;;;;;4859967;29;20693;-87
2022/10/27 04:35:21;;;;;;;6.13;4.60;;;9.50;99.90;;;;;;4863387;29;20215;-87
2022/10/27 04:37:47;;;;;;;11.03;5.33;;;9.50;99.90;;;;;;4863259;29;20722;-87
2022/10/27 04:40:13;;;;;;;11.70;4.50;;;9.50;99.90;;;;;;4862875;29;20203;-86
2022/10/27 04:42:46;;;;;;;13.40;3.60;;;9.50;99.90;;;;;;4863128;29;20203;-86
2022/10/27 04:45:12;;;;;;;11.17;3.80;;;9.50;99.90;;;;;;4863271;29;20187;-86
2022/10/27 04:47:38;;;;;;;7.10;3.73;;;9.50;99.90;;;;;;4878208;29;20215;-87
2022/10/27 04:50:05;;;;;;;19.47;3.97;;;9.50;99.90;;;;;;4862702;29;20240;-86
2022/10/27 04:52:30;;;;;;;3.57;3.27;;;9.50;99.90;;;;;;4863125;29;20204;-86
2022/10/27 04:54:56;;;;;;;3.53;3.23;;;9.50;99.90;;;;;;4849935;29;20272;-86
2022/10/27 04:57:23;;;;;;;5.50;3.80;;;9.50;99.90;;;;;;4859579;29;20191;-86
2022/10/27 04:59:49;;;;;;;3.70;3.27;;;9.50;99.90;;;;;;4859771;29;20189;-86
2022/10/27 05:02:32;;;;;;;5.77;3.40;;;9.50;99.90;;;;;;4844010;29;20188;-87
2022/10/27 05:04:58;;;;;;;7.83;3.07;;;9.50;99.90;;;;;;4860995;29;20615;-86
2022/10/27 05:07:24;;;;;;;4.50;2.90;;;9.50;99.90;;;;;;4844078;29;20285;-87
2022/10/27 05:09:50;;;;;;;5.20;3.53;;;9.40;99.90;;;;;;4844348;29;20207;-86
2022/10/27 05:12:15;;;;;;;2.93;2.73;;;9.40;99.90;;;;;;4844267;29;20177;-86
2022/10/27 05:14:41;;;;;;;4.33;2.80;;;9.30;99.90;;;;;;4844450;29;20191;-86
2022/10/27 05:17:07;;;;;;;4.33;3.53;;;9.30;99.90;;;;;;4845331;29;20181;-87
2022/10/27 05:19:33;;;;;;;5.37;3.20;;;9.20;99.90;;;;;;4863559;29;20183;-86
2022/10/27 05:22:01;;;;;;;3.53;2.80;;;9.30;99.90;;;;;;4863048;29;20181;-86
2022/10/27 05:24:26;;;;;;;4.97;3.10;;;9.10;99.90;;;;;;4863218;29;20185;-87
2022/10/27 05:26:52;;;;;;;3.33;3.03;;;9.10;99.90;;;;;;4862949;29;20212;-88
2022/10/27 05:29:18;;;;;;;12.07;3.27;;;9.10;99.90;;;;;;4863031;29;20217;-87
2022/10/27 05:31:44;;;;;;;14.73;3.10;;;9.00;99.90;;;;;;4863063;29;20196;-87
2022/10/27 05:34:10;;;;;;;3.30;3.00;;;8.80;99.90;;;;;;4865233;29;20345;-86
2022/10/27 05:36:36;;;;;;;3.63;2.93;;;8.70;99.90;;;;;;4850339;29;20200;-87
2022/10/27 05:39:02;;;;;;;3.50;3.20;;;8.70;99.90;;;;;;4862980;29;20192;-86
2022/10/27 05:41:28;;;;;;;3.23;2.83;;;8.80;99.90;;;;;;4863010;29;20192;-86
2022/10/27 05:43:53;;;;;;;4.00;3.13;;;8.80;99.90;;;;;;4867069;29;20208;-86
2022/10/27 05:46:19;;;;;;;3.03;2.83;;;8.70;99.90;;;;;;4867667;29;20189;-85
2022/10/27 05:48:45;;;;;;;3.33;3.00;;;8.70;99.90;;;;;;4866123;29;20207;-86
2022/10/27 05:51:11;;;;;;;4.27;3.13;;;8.60;99.90;;;;;;4865609;29;20188;-86
2022/10/27 05:53:37;;;;;;;3.73;3.30;;;8.70;99.90;;;;;;4860230;29;20203;-86
2022/10/27 05:56:03;;;;;;;3.83;2.83;;;8.60;99.90;;;;;;4862652;29;20185;-87
2022/10/27 05:58:29;;;;;;;3.60;3.30;;;8.70;99.90;;;;;;4862330;29;20200;-86
2022/10/27 06:00:59;;;;;;;4.10;3.27;;;8.60;99.90;;;;;;4861996;29;20185;-86
2022/10/27 06:03:25;;;;;;;5.50;3.43;;;8.70;99.90;;;;;;4859535;29;20217;-86
2022/10/27 06:05:52;;;;;;;3.47;3.17;;;8.70;99.90;;;;;;4843970;29;20192;-86
2022/10/27 06:08:19;;;;;;;3.50;3.20;;;8.70;99.90;;;;;;4859180;29;20208;-86
2022/10/27 06:10:45;;;;;;;3.33;3.03;;;8.70;99.90;;;;;;4859344;29;20204;-85
2022/10/27 06:13:13;;;;;;;3.87;2.77;;;8.70;99.90;;;;;;4843740;29;20215;-86
2022/10/27 06:15:39;;;;;;;3.13;2.80;;;8.80;99.90;;;;;;4859759;29;20209;-85
2022/10/27 06:18:05;;;;;;;3.10;2.90;;;8.80;99.90;;;;;;4843294;29;20284;-86
2022/10/27 06:20:31;;;;;;;2.80;2.60;;;8.80;99.90;;;;;;4852162;29;20549;-86
2022/10/27 06:22:57;;;;;;;5.40;3.50;;;8.80;99.90;;;;;;4877208;29;20201;-86
2022/10/27 06:25:23;;;;;;;8.00;3.07;;;8.80;99.90;;;;;;4843605;29;20214;-86
2022/10/27 06:27:49;;;;;;;25.23;4.80;;;8.80;99.90;;;;;;4842620;29;20221;-86
2022/10/27 06:30:15;;;;;;;7.20;3.60;;;8.70;99.90;;;;;;4843348;29;20250;-86
2022/10/27 06:32:42;;;;;;;4.73;3.13;;;8.60;99.90;;;;;;4843476;29;20203;-86
2022/10/27 06:35:09;;;;;;;4.37;3.30;;;8.70;99.90;;;;;;4843065;29;20185;-86
2022/10/27 06:37:39;;;;;;;3.80;3.43;;;8.70;99.90;;;;;;4843306;29;20216;-86
2022/10/27 06:40:08;;;;;;;6.13;2.90;;;8.70;99.90;;;;;;4876166;29;20252;-86
2022/10/27 06:42:35;;;;;;;3.90;2.97;;;8.80;99.90;;;;;;4861390;29;20212;-86
2022/10/27 06:45:02;;;;;;;3.03;2.73;;;8.80;99.90;;;;;;4861372;29;20189;-86
2022/10/27 06:47:28;;;;;;;3.67;2.73;;;8.90;99.90;;;;;;4861152;29;20220;-86
2022/10/27 06:49:54;;;;;;;2.70;2.50;;;8.90;99.90;;;;;;4861264;29;20189;-85
2022/10/27 06:52:20;;;;;;;3.13;2.80;;;8.90;99.90;;;;;;4861340;29;20201;-86
2022/10/27 06:54:46;;;;;;;3.73;3.20;;;8.90;99.90;;;;;;4861466;29;20192;-85
2022/10/27 06:57:11;;;;;;;2.80;2.60;;;9.00;99.90;;;;;;4861239;29;20193;-86
2022/10/27 06:59:37;;;;;;;3.80;2.90;;;9.00;99.90;;;;;;4861278;29;20228;-86
2022/10/27 07:02:03;;;;;;;3.30;3.00;;;9.10;99.90;;;;;;4860643;29;20189;-86
2022/10/27 07:04:29;;;;;;;4.27;3.20;;;9.20;99.90;;;;;;4861396;29;20189;-86
2022/10/27 07:06:56;;;;;;;4.13;3.00;;;9.30;99.90;;;;;;4861001;29;20240;-86
2022/10/27 07:09:22;;;;;;;4.80;3.13;;;9.30;99.90;;;;;;4848647;29;20185;-86
2022/10/27 07:11:48;;;;;;;4.40;3.03;;;9.30;99.90;;;;;;4827605;29;20350;-86
2022/10/27 07:14:14;;;;;;;3.37;3.00;;;9.40;99.90;;;;;;4843125;29;20204;-87
2022/10/27 07:16:40;;;;;;;3.07;2.77;;;9.50;99.90;;;;;;4859823;29;20177;-85
2022/10/27 07:19:06;;;;;;;3.23;2.73;;;9.50;99.90;;;;;;4861175;29;20181;-87
2022/10/27 07:21:32;;;;;;;3.70;3.10;;;9.60;99.90;;;;;;4860701;29;20185;-86
2022/10/27 07:23:57;;;;;;;4.07;3.37;;;9.70;99.90;;;;;;4860589;29;20201;-86
2022/10/27 07:26:23;;;;;;;3.30;3.00;;;9.80;99.90;;;;;;4876240;29;20180;-87
2022/10/27 07:28:49;;;;;;;3.60;3.13;;;9.80;99.90;;;;;;4860233;29;20213;-87
2022/10/27 07:31:15;;;;;;;3.07;2.77;;;9.80;99.90;;;;;;4860347;29;20538;-86
2022/10/27 07:33:41;;;;;;;3.20;2.90;;;9.80;99.90;;;;;;4860468;29;20196;-86
2022/10/27 07:36:07;;;;;;;5.07;3.03;;;9.90;99.90;;;;;;4860419;29;20251;-86
2022/10/27 07:38:33;;;;;;;3.00;2.70;;;9.90;99.90;;;;;;4860642;29;20203;-86
2022/10/27 07:40:59;;;;;;;3.60;2.80;;;9.90;99.90;;;;;;4860021;29;20189;-86
2022/10/27 07:43:25;;;;;;;3.37;2.77;;;10.00;99.90;;;;;;4861513;29;20287;-84
2022/10/27 07:45:51;;;;;;;3.63;2.77;;;10.10;99.90;;;;;;4859779;29;20185;-84
2022/10/27 07:48:17;;;;;;;3.57;2.70;;;10.10;99.90;;;;;;4862674;29;20215;-85
2022/10/27 07:50:44;;;;;;;3.83;3.17;;;10.20;99.90;;;;;;4880122;29;20184;-86
2022/10/27 07:53:10;;;;;;;4.70;3.60;;;10.30;99.90;;;;;;4862997;29;20308;-86
2022/10/27 07:55:36;;;;;;;4.23;3.67;;;10.30;99.90;;;;;;4863231;29;20207;-84
2022/10/27 07:58:08;;;;;;;3.83;3.30;;;10.20;99.90;;;;;;4862946;29;20198;-86
2022/10/27 08:00:37;;;;;;;4.83;3.93;;;10.20;99.90;;;;;;4863089;29;20180;-86
2022/10/27 08:03:04;;;;;;;5.83;3.70;;;10.30;99.90;;;;;;4863685;29;20205;-86
2022/10/27 08:05:33;;;;;;;5.37;3.43;;;10.40;99.90;;;;;;4863121;29;20191;-86
2022/10/27 08:08:02;;;;;;;3.73;3.40;;;10.50;99.90;;;;;;4861042;29;20243;-86
2022/10/27 08:10:29;;;;;;;4.73;3.40;;;10.60;99.90;;;;;;4859892;29;20193;-87
2022/10/27 08:12:55;;;;;;;7.97;3.87;;;10.80;99.90;;;;;;4860024;29;20227;-86
2022/10/27 08:15:22;;;;;;;7.20;3.63;;;10.80;99.90;;;;;;4860035;29;20193;-86
2022/10/27 08:18:04;;;;;;;5.63;3.87;;;11.00;99.90;;;;;;4862459;29;20275;-86
2022/10/27 08:20:34;;;;;;;4.43;3.70;;;11.10;99.90;;;;;;4878195;29;20253;-86
2022/10/27 08:23:12;;;;;;;5.23;3.53;;;11.20;99.90;;;;;;4878329;29;20214;-87
2022/10/27 08:25:48;;;;;;;5.07;3.23;;;11.40;99.90;;;;;;4862777;29;20178;-87
2022/10/27 08:28:26;;;;;;;4.97;3.80;;;11.60;99.90;;;;;;4878422;29;20682;-86
2022/10/27 08:30:52;;;;;;;4.97;3.73;;;11.70;99.90;;;;;;4863336;29;20199;-87
2022/10/27 08:33:19;;;;;;;4.30;3.30;;;11.90;99.90;;;;;;4864854;29;20209;-87
2022/10/27 08:35:45;;;;;;;5.27;3.77;;;12.00;99.90;;;;;;4862650;29;20206;-87
2022/10/27 08:38:15;;;;;;;5.33;3.47;;;12.20;99.90;;;;;;4858867;29;20277;-87
2022/10/27 08:40:44;;;;;;;3.57;3.27;;;12.30;99.90;;;;;;4859270;29;20294;-87
2022/10/27 08:43:28;;;;;;;5.50;3.60;;;12.40;99.90;;;;;;4864111;29;20264;-87
2022/10/27 08:46:22;;;;;;;4.73;3.43;;;12.50;99.90;;;;;;4859553;29;20224;-86
2022/10/27 08:49:28;;;;;;;3.90;3.40;;;12.70;99.90;;;;;;4859022;29;20204;-87
2022/10/27 08:52:02;;;;;;;5.47;3.43;;;12.80;99.90;;;;;;4859250;29;20202;-85
2022/10/27 08:54:28;;;;;;;4.20;3.80;;;13.00;99.90;;;;;;4843707;29;20290;-86
2022/10/27 08:57:09;;;;;;;5.40;3.80;;;13.10;99.90;;;;;;4858858;29;20204;-85
2022/10/27 08:59:36;;;;;;;5.10;3.30;;;13.20;99.90;;;;;;4872872;29;20227;-85
2022/10/27 09:02:11;;;;;;;4.87;3.60;;;13.30;99.90;;;;;;4859673;29;20279;-85
2022/10/27 09:04:56;;;;;;;8.40;3.73;;;13.40;99.90;;;;;;4859138;29;20224;-85
2022/10/27 09:07:35;;;;;;;5.60;3.53;;;13.50;99.90;;;;;;4859379;29;20192;-85
2022/10/27 09:10:21;;;;;;;5.80;3.47;;;13.70;99.90;;;;;;4845702;29;20215;-85
2022/10/27 09:12:56;;;;;;;6.63;3.80;;;13.80;99.90;;;;;;4858128;29;20219;-85
2022/10/27 09:15:47;;;;;;;5.17;3.53;;;13.90;99.90;;;;;;4858543;29;20608;-85
2022/10/27 09:18:29;;;;;;;5.10;3.20;;;14.00;99.90;;;;;;4859878;29;20263;-85
2022/10/27 09:20:57;;;;;;;4.60;3.20;;;14.20;99.90;;;;;;4843754;29;20184;-85
2022/10/27 09:23:52;;;;;;;3.90;3.10;;;14.30;99.90;;;;;;4859898;29;20204;-86
2022/10/27 09:26:30;;;;;;;6.80;3.60;;;14.40;99.90;;;;;;4859544;29;20212;-77
2022/10/27 09:29:09;;;;;;;4.93;3.50;;;14.50;99.90;;;;;;4865652;29;20306;-76
2022/10/27 09:31:43;;;;;;;6.63;3.53;;;14.60;99.90;;;;;;4859046;29;20256;-87
2022/10/27 09:37:41;;;;;;;5.80;3.53;;;14.90;99.90;;;;;;4859626;29;20424;-86
2022/10/27 09:40:19;;;;;;;6.23;3.93;;;15.00;99.90;;;;;;4860167;29;20197;-86
2022/10/27 09:42:47;;;;;;;5.07;3.80;;;15.10;99.90;;;;;;4859259;29;20211;-79
2022/10/27 09:45:20;;;;;;;3.93;3.47;;;15.10;99.90;;;;;;4860663;29;20192;-82
2022/10/27 09:47:59;;;;;;;4.83;3.50;;;15.20;99.90;;;;;;4860841;29;20679;-82
2022/10/27 09:50:35;;;;;;;5.57;3.73;;;15.40;99.90;;;;;;4859970;29;20195;-88
2022/10/27 09:53:03;;;;;;;6.73;3.60;;;15.40;99.90;;;;;;4860573;29;20303;-84
2022/10/27 09:55:49;;;;;;;4.13;3.33;;;15.40;99.90;;;;;;4859170;29;20187;-83
2022/10/27 09:58:15;;;;;;;3.93;3.53;;;15.50;99.90;;;;;;4862234;29;20232;-86
2022/10/27 10:00:41;;;;;;;7.33;4.17;;;15.70;99.90;;;;;;4858825;29;20189;-87
2022/10/27 10:03:19;;;;;;;4.47;3.63;;;15.70;99.90;;;;;;4860299;29;20233;-87
2022/10/27 10:05:56;;;;;;;6.50;4.10;;;15.80;99.90;;;;;;4862590;29;20180;-87
2022/10/27 10:08:25;;;;;;;6.83;3.50;;;15.90;99.90;;;;;;4865780;29;20241;-86
2022/10/27 10:11:00;;;;;;;6.00;3.60;;;15.90;99.90;;;;;;4865118;29;20180;-86
2022/10/27 10:13:30;;;;;;;5.82;3.58;;;16.10;99.90;;;;;;4865242;29;20203;-86
2022/10/27 10:16:11;;;;;;;4.53;3.77;;;16.20;99.90;;;;;;4865103;29;20306;-86
2022/10/27 10:18:39;;;;;;;5.32;3.75;;;16.30;99.90;;;;;;4865193;29;20191;-87
2022/10/27 10:21:11;;;;;;;3.67;3.20;;;16.30;99.90;;;;;;4865255;29;20218;-86
2022/10/27 10:23:55;;;;;;;5.38;3.20;;;16.40;99.90;;;;;;4881195;29;20211;-87
2022/10/27 10:26:25;;;;;;;6.00;3.33;;;16.60;99.90;;;;;;4866641;29;20247;-87
2022/10/27 10:28:54;;;;;;;4.78;3.58;;;16.70;99.90;;;;;;4867202;29;20261;-87
2022/10/27 10:31:24;;;;;;;6.93;3.33;;;16.80;99.90;;;;;;4880086;29;20188;-87
2022/10/27 10:33:51;;;;;;;4.68;3.47;;;16.90;99.90;;;;;;4864848;29;20236;-87
2022/10/27 10:36:28;;;;;;;4.97;3.17;;;17.10;99.90;;;;;;4864683;29;20191;-87
2022/10/27 10:38:59;;;;;;;5.82;3.53;;;17.10;99.90;;;;;;4855767;29;20216;-86
2022/10/27 10:41:32;;;;;;;6.03;3.30;;;17.20;99.90;;;;;;4868060;29;20173;-87
2022/10/27 10:44:06;;;;;;;6.22;3.42;;;17.30;99.90;;;;;;4879965;29;20208;-87
2022/10/27 10:46:34;;;;;;;6.65;3.63;;;17.30;99.90;;;;;;4879914;29;20184;-87
2022/10/27 10:49:02;;;;;;;9.18;3.20;;;17.40;99.90;;;;;;4895597;29;20184;-87
2022/10/27 10:51:35;;;;;;;4.45;3.25;;;17.50;99.90;;;;;;4879907;29;20212;-87
2022/10/27 10:54:08;;;;;;;5.85;3.67;;;17.60;99.90;;;;;;4879582;29;20259;-87
2022/10/27 10:56:37;;;;;;;6.50;3.05;;;17.70;99.90;;;;;;4879937;29;20180;-87
2022/10/27 10:59:12;;;;;;;4.38;3.05;;;17.90;99.90;;;;;;4873946;29;20188;-87
2022/10/27 11:02:11;;;;;;;4.68;3.00;;;18.00;99.90;;;;;;4861194;29;20240;-87
2022/10/27 11:04:51;;;;;;;5.63;2.67;;;18.10;99.90;;;;;;4861056;29;20246;-87
2022/10/27 11:07:25;;;;;;;5.00;2.63;;;18.30;99.90;;;;;;4860986;29;20204;-87
2022/10/27 11:10:12;;;;;;;6.18;2.70;;;18.40;99.90;;;;;;4861272;29;20195;-87
2022/10/27 11:12:48;;;;;;;6.05;2.90;;;18.50;99.90;;;;;;4860492;29;20208;-87
2022/10/27 11:15:34;;;;;;;5.05;2.50;;;18.60;99.90;;;;;;4859948;29;20211;-87
2022/10/27 11:18:25;;;;;;;4.00;2.38;;;18.70;99.90;;;;;;4860708;29;20185;-87
2022/10/27 11:21:10;;;;;;;4.78;2.35;;;18.90;99.90;;;;;;4860627;29;20180;-87
2022/10/27 11:23:50;;;;;;;6.65;2.60;;;19.10;99.90;;;;;;4859731;29;20299;-86
2022/10/27 11:26:20;;;;;;;5.72;2.47;;;19.20;99.90;;;;;;4859829;29;20216;-87
2022/10/27 11:29:06;;;;;;;8.02;2.83;;;19.30;99.90;;;;;;4860624;29;20212;-87
2022/10/27 11:31:57;;;;;;;7.25;3.00;;;19.50;99.90;;;;;;4860799;29;20208;-87
2022/10/27 11:34:37;;;;;;;5.35;2.25;;;19.50;99.90;;;;;;4860677;29;20224;-87
2022/10/27 11:37:41;;;;;;;8.63;2.78;;;19.70;99.90;;;;;;4859997;29;20235;-87
2022/10/27 11:40:26;;;;;;;8.10;2.70;;;19.70;99.90;;;;;;4840186;29;20279;-87
2022/10/27 11:43:14;;;;;;;6.53;2.50;;;19.90;99.90;;;;;;4842333;29;20216;-86
2022/10/27 11:45:57;;;;;;;4.65;2.45;;;19.90;99.90;;;;;;4849450;29;20195;-86
2022/10/27 11:48:30;;;;;;;6.38;2.92;;;20.10;99.90;;;;;;4844299;29;20200;-86
2022/10/27 11:51:17;;;;;;;5.60;2.50;;;20.20;99.90;;;;;;4860841;29;20173;-87
2022/10/27 11:53:43;;;;;;;5.53;2.55;;;20.20;99.90;;;;;;4844934;29;20204;-87
2022/10/27 11:56:42;;;;;;;4.35;2.40;;;20.30;99.90;;;;;;4844678;29;20359;-86
2022/10/27 11:59:14;;;;;;;5.78;2.40;;;20.40;99.90;;;;;;4844836;29;20233;-87
2022/10/27 12:01:59;;;;;;;4.78;2.67;;;20.50;99.90;;;;;;4844945;29;20197;-86
2022/10/27 12:04:38;;;;;;;7.03;2.47;;;20.70;99.90;;;;;;4844747;29;20208;-86
2022/10/27 12:07:09;;;;;;;5.88;2.33;;;20.80;99.90;;;;;;4844323;29;20216;-86
2022/10/27 12:10:11;;;;;;;5.07;2.92;;;21.00;99.90;;;;;;4844321;29;20275;-87
2022/10/27 12:12:40;;;;;;;5.85;2.50;;;21.20;99.90;;;;;;4859700;29;20205;-87
2022/10/27 12:15:17;;;;;;;5.40;2.25;;;21.30;99.90;;;;;;4859816;29;20185;-86
2022/10/27 12:17:56;;;;;;;3.05;2.35;;;21.50;99.90;;;;;;4859571;29;20180;-87
2022/10/27 12:20:41;;;;;;;4.55;2.67;;;21.60;99.90;;;;;;4859702;29;20188;-86
2022/10/27 12:23:13;;;;;;;6.32;2.55;;;21.80;99.90;;;;;;4826269;29;20213;-86
2022/10/27 12:25:53;;;;;;;7.03;2.78;;;21.90;99.90;;;;;;4855429;29;20179;-86
2022/10/27 12:28:22;;;;;;;4.97;2.50;;;21.90;99.90;;;;;;4845676;29;20200;-85
2022/10/27 12:30:49;;;;;;;6.85;2.70;;;22.00;99.90;;;;;;4843384;29;20189;-86
2022/10/27 12:33:28;;;;;;;4.93;2.40;;;22.10;99.90;;;;;;4858937;29;20213;-86
2022/10/27 12:35:59;;;;;;;5.13;2.72;;;22.20;99.90;;;;;;4861393;29;20188;-86
2022/10/27 12:38:46;;;;;;;6.53;2.75;;;22.10;99.90;;;;;;4840776;29;20204;-86
2022/10/27 12:41:42;;;;;;;7.65;3.15;;;22.10;99.90;;;;;;4841228;29;20181;-86
2022/10/27 12:44:31;;;;;;;6.93;2.75;;;22.10;99.90;;;;;;4849435;29;20212;-86
2022/10/27 12:47:03;;;;;;;6.53;2.78;;;22.20;99.90;;;;;;4859542;29;20177;-86
2022/10/27 12:50:06;;;;;;;7.63;2.90;;;22.40;99.90;;;;;;4859346;29;20191;-86
2022/10/27 12:52:47;;;;;;;3.95;2.38;;;22.50;99.90;;;;;;4859349;29;20209;-87
2022/10/27 12:55:44;;;;;;;4.53;2.30;;;22.70;99.90;;;;;;4859111;29;20203;-86
2022/10/27 12:58:32;;;;;;;5.05;2.60;;;22.90;99.90;;;;;;4859285;29;20195;-86
2022/10/27 13:01:18;;;;;;;5.78;3.00;;;23.10;99.90;;;;;;4852871;29;20185;-86
2022/10/27 13:04:07;;;;;;;10.13;2.90;;;23.10;99.90;;;;;;4859208;29;20208;-86
2022/10/27 13:07:00;;;;;;;7.70;3.00;;;23.00;99.90;;;;;;4858342;29;20262;-86
2022/10/27 13:09:57;;;;;;;8.35;2.83;;;23.00;99.90;;;;;;4881607;29;20223;-86
2022/10/27 13:12:26;;;;;;;6.45;2.83;;;23.20;99.90;;;;;;4862399;29;20958;-86
2022/10/27 13:15:56;;;;;;;7.28;2.80;;;23.30;99.90;;;;;;4849393;29;20175;-86
2022/10/27 13:18:53;;;;;;;5.68;2.72;;;23.30;99.90;;;;;;4784034;29;20205;-86
2022/10/27 13:21:31;;;;;;;4.75;2.40;;;23.50;99.90;;;;;;4859159;29;20187;-86